Time;durP1;ratioP1;P1;durP2;ratioP2;P2;SDS_P1;SDS_P2;PMS_P1;PMS_P2;Temp;Humidity;BMP_temperature;BMP_pressure;BME280_temperature;BME280_humidity;BME280_pressure;Samples;Min_cycle;Max_cycle;Signal;HPM_P1;HPM_P2
2023/06/11 00:01:24;;;;;;;6.07;5.57;;;22.60;67.00;;;;;;4954243;28;20185;-68
2023/06/11 00:03:53;;;;;;;6.07;5.47;;;22.60;66.90;;;;;;4977291;28;20194;-68
2023/06/11 00:06:27;;;;;;;6.43;5.40;;;22.60;67.00;;;;;;5069679;28;20542;-67
2023/06/11 00:08:55;;;;;;;5.97;5.32;;;22.60;66.90;;;;;;5065490;28;20297;-67
2023/06/11 00:11:21;;;;;;;5.50;5.10;;;22.60;66.90;;;;;;5048235;28;20195;-67
2023/06/11 00:13:49;;;;;;;5.47;5.05;;;22.60;67.00;;;;;;5052815;28;20282;-67
2023/06/11 00:16:15;;;;;;;5.43;5.03;;;22.60;66.90;;;;;;5048150;28;20662;-67
2023/06/11 00:18:42;;;;;;;5.93;5.43;;;22.50;66.80;;;;;;5045348;28;20754;-67
2023/06/11 00:21:10;;;;;;;6.20;5.60;;;22.50;66.90;;;;;;5026703;28;20198;-67
2023/06/11 00:23:37;;;;;;;5.63;5.13;;;22.50;66.90;;;;;;5048440;28;20187;-67
2023/06/11 00:26:07;;;;;;;5.57;5.18;;;22.60;67.00;;;;;;5048103;28;20215;-67
2023/06/11 00:28:34;;;;;;;5.90;5.47;;;22.50;66.90;;;;;;5028057;28;20574;-67
2023/06/11 00:31:00;;;;;;;6.32;5.82;;;22.50;67.00;;;;;;5036462;28;20183;-67
2023/06/11 00:33:27;;;;;;;5.65;5.15;;;22.50;66.90;;;;;;5053660;28;20190;-67
2023/06/11 00:35:53;;;;;;;5.70;5.20;;;22.50;67.00;;;;;;5049244;28;20194;-67
2023/06/11 00:38:20;;;;;;;5.97;5.47;;;22.50;67.00;;;;;;5027876;28;20207;-67
2023/06/11 00:40:47;;;;;;;5.43;5.03;;;22.50;67.00;;;;;;5011415;28;20187;-67
2023/06/11 00:43:13;;;;;;;5.47;5.07;;;22.50;67.00;;;;;;5011392;28;20188;-66
2023/06/11 00:45:41;;;;;;;5.72;5.28;;;22.50;67.00;;;;;;5014001;28;20211;-67
2023/06/11 00:48:07;;;;;;;5.28;4.82;;;22.50;67.00;;;;;;5044469;28;20913;-68
2023/06/11 00:50:44;;;;;;;6.00;4.93;;;22.50;67.00;;;;;;5037731;28;20194;-67
2023/06/11 00:53:14;;;;;;;5.65;5.25;;;22.50;67.00;;;;;;5030938;28;20325;-68
2023/06/11 00:55:40;;;;;;;5.80;5.03;;;22.50;67.00;;;;;;5039463;28;20199;-67
2023/06/11 00:58:13;;;;;;;5.30;4.80;;;22.50;67.00;;;;;;5044084;28;20198;-67
2023/06/11 01:00:54;;;;;;;5.60;5.10;;;22.50;67.00;;;;;;5021151;28;20213;-68
2023/06/11 01:03:26;;;;;;;5.38;4.97;;;22.50;67.00;;;;;;5047442;28;20202;-67
2023/06/11 01:06:06;;;;;;;5.40;4.90;;;22.50;67.00;;;;;;5055003;28;20266;-67
2023/06/11 01:08:38;;;;;;;5.22;4.82;;;22.50;67.00;;;;;;5029511;28;20203;-67
2023/06/11 01:11:21;;;;;;;5.32;4.93;;;22.50;67.10;;;;;;5011204;28;20172;-67
2023/06/11 01:13:48;;;;;;;5.13;4.72;;;22.50;67.10;;;;;;5038954;28;20198;-68
2023/06/11 01:16:37;;;;;;;5.53;5.07;;;22.50;67.10;;;;;;5051153;28;20211;-67
2023/06/11 01:19:38;;;;;;;5.25;4.85;;;22.50;67.10;;;;;;5016226;28;20203;-67
2023/06/11 01:22:19;;;;;;;4.70;4.40;;;22.50;67.10;;;;;;5028729;28;20214;-67
2023/06/11 01:25:17;;;;;;;5.07;4.68;;;22.50;67.10;;;;;;5014639;28;20208;-67
2023/06/11 01:28:05;;;;;;;5.50;5.03;;;22.50;67.10;;;;;;5004898;28;20563;-67
2023/06/11 01:30:36;;;;;;;5.53;5.03;;;22.50;67.10;;;;;;5013584;28;20216;-67
2023/06/11 01:33:03;;;;;;;5.32;4.93;;;22.50;67.10;;;;;;5014062;28;20180;-67
2023/06/11 01:35:35;;;;;;;4.90;4.50;;;22.50;67.10;;;;;;5023680;28;20195;-67
2023/06/11 01:38:02;;;;;;;5.85;5.35;;;22.50;67.10;;;;;;5033638;28;20187;-66
2023/06/11 01:40:36;;;;;;;5.10;4.70;;;22.50;67.10;;;;;;5030376;28;20183;-67
2023/06/11 01:43:02;;;;;;;5.30;4.88;;;22.50;67.20;;;;;;5002820;28;20187;-67
2023/06/11 01:45:33;;;;;;;5.78;5.18;;;22.50;67.10;;;;;;5041223;28;20293;-67
2023/06/11 01:48:00;;;;;;;5.10;4.70;;;22.50;67.10;;;;;;5013863;28;20648;-66
2023/06/11 01:50:28;;;;;;;4.95;4.55;;;22.50;67.10;;;;;;5030006;28;20214;-67
2023/06/11 01:52:54;;;;;;;4.78;4.45;;;22.50;67.10;;;;;;5017193;28;20179;-67
2023/06/11 01:55:20;;;;;;;5.28;4.82;;;22.50;67.10;;;;;;5033608;28;20191;-67
2023/06/11 01:57:46;;;;;;;5.05;4.65;;;22.50;67.20;;;;;;5033163;28;20271;-67
2023/06/11 02:00:14;;;;;;;5.45;5.03;;;22.50;67.20;;;;;;5016341;28;20203;-67
2023/06/11 02:02:47;;;;;;;4.90;4.50;;;22.50;67.20;;;;;;5031318;28;20681;-67
2023/06/11 02:05:14;;;;;;;5.10;4.70;;;22.50;67.20;;;;;;5003751;28;20309;-67
2023/06/11 02:07:40;;;;;;;5.57;5.18;;;22.50;67.20;;;;;;5024656;28;20236;-66
2023/06/11 02:10:07;;;;;;;4.95;4.55;;;22.50;67.20;;;;;;5016392;28;20317;-67
2023/06/11 02:12:33;;;;;;;5.30;4.90;;;22.50;67.20;;;;;;5032993;28;20179;-67
2023/06/11 02:14:59;;;;;;;5.00;4.50;;;22.40;67.00;;;;;;5016560;28;20245;-67
2023/06/11 02:17:25;;;;;;;5.10;4.70;;;22.50;67.30;;;;;;5016584;28;20278;-67
2023/06/11 02:19:51;;;;;;;5.00;4.60;;;22.50;67.20;;;;;;5016324;28;20225;-67
2023/06/11 02:22:17;;;;;;;4.78;4.38;;;22.50;67.10;;;;;;5008091;28;20194;-67
2023/06/11 02:24:43;;;;;;;4.15;3.85;;;22.40;67.00;;;;;;5030717;28;20207;-67
2023/06/11 02:27:09;;;;;;;5.20;4.80;;;22.50;67.20;;;;;;5032559;28;20215;-66
2023/06/11 02:29:35;;;;;;;5.07;4.68;;;22.50;67.10;;;;;;5013403;28;20211;-67
2023/06/11 02:32:04;;;;;;;4.80;4.40;;;22.50;67.20;;;;;;5012531;28;20176;-66
2023/06/11 02:34:30;;;;;;;4.57;4.22;;;22.50;67.20;;;;;;5029254;28;20204;-67
2023/06/11 02:36:56;;;;;;;5.38;4.90;;;22.50;67.20;;;;;;5016196;28;20191;-67
2023/06/11 02:39:22;;;;;;;4.68;4.28;;;22.40;67.10;;;;;;5040451;28;20218;-66
2023/06/11 02:41:47;;;;;;;4.78;4.38;;;22.50;67.30;;;;;;5031367;28;20195;-67
2023/06/11 02:44:13;;;;;;;4.93;4.47;;;22.40;67.10;;;;;;5025965;28;20195;-67
2023/06/11 02:46:39;;;;;;;4.47;4.18;;;22.40;67.10;;;;;;5012162;28;20195;-67
2023/06/11 02:49:05;;;;;;;4.57;4.18;;;22.50;67.30;;;;;;5008988;28;20207;-67
2023/06/11 02:51:31;;;;;;;5.03;4.63;;;22.50;67.30;;;;;;5034572;28;20191;-67
2023/06/11 02:53:57;;;;;;;4.80;4.47;;;22.40;67.10;;;;;;5004348;28;20187;-67
2023/06/11 02:56:22;;;;;;;4.80;4.40;;;22.50;67.30;;;;;;5027703;28;20187;-67
2023/06/11 02:58:49;;;;;;;5.13;4.70;;;22.50;67.30;;;;;;5014499;28;20234;-67
2023/06/11 03:01:15;;;;;;;4.90;4.50;;;22.40;67.10;;;;;;5015621;28;20175;-67
2023/06/11 03:03:41;;;;;;;4.97;4.57;;;22.40;67.20;;;;;;5030032;28;20278;-67
2023/06/11 03:06:06;;;;;;;4.82;4.43;;;22.50;67.30;;;;;;5010364;28;20200;-67
2023/06/11 03:08:33;;;;;;;4.53;4.22;;;22.40;67.10;;;;;;5004411;28;20239;-65
2023/06/11 03:10:58;;;;;;;4.65;4.25;;;22.40;67.20;;;;;;5014918;28;20195;-67
2023/06/11 03:13:24;;;;;;;4.65;4.25;;;22.40;67.10;;;;;;5008177;28;20199;-67
2023/06/11 03:15:52;;;;;;;4.72;4.32;;;22.40;67.10;;;;;;5028174;28;20196;-67
2023/06/11 03:18:18;;;;;;;4.22;3.92;;;22.40;67.10;;;;;;5019944;28;20216;-67
2023/06/11 03:20:44;;;;;;;4.15;3.85;;;22.40;67.20;;;;;;5028570;28;20238;-67
2023/06/11 03:23:10;;;;;;;4.65;4.28;;;22.40;67.20;;;;;;5023419;28;20180;-67
2023/06/11 03:25:39;;;;;;;4.95;4.55;;;22.40;67.20;;;;;;5014186;28;20206;-67
2023/06/11 03:28:04;;;;;;;4.70;4.40;;;22.40;67.20;;;;;;5003323;28;20214;-68
2023/06/11 03:30:31;;;;;;;4.72;4.32;;;22.40;67.20;;;;;;5019867;28;20206;-68
2023/06/11 03:33:00;;;;;;;4.60;4.20;;;22.40;67.20;;;;;;5020539;28;20180;-67
2023/06/11 03:35:26;;;;;;;4.20;3.90;;;22.40;67.20;;;;;;5027557;28;20294;-67
2023/06/11 03:37:52;;;;;;;4.63;4.32;;;22.40;67.20;;;;;;5031244;28;20241;-67
2023/06/11 03:40:22;;;;;;;4.65;4.35;;;22.40;67.20;;;;;;5008306;28;20208;-67
2023/06/11 03:42:49;;;;;;;4.70;4.30;;;22.40;67.20;;;;;;5027988;28;20198;-67
2023/06/11 03:45:15;;;;;;;4.78;4.38;;;22.40;67.20;;;;;;5025661;28;20215;-67
2023/06/11 03:47:41;;;;;;;5.05;4.60;;;22.40;67.20;;;;;;5012901;28;20250;-67
2023/06/11 03:50:08;;;;;;;4.97;4.57;;;22.40;67.20;;;;;;5014334;28;20203;-68
2023/06/11 03:52:34;;;;;;;4.60;4.25;;;22.40;67.20;;;;;;5031370;28;20187;-67
2023/06/11 03:54:59;;;;;;;3.90;3.60;;;22.40;67.20;;;;;;5014968;28;20187;-67
2023/06/11 03:57:26;;;;;;;4.50;4.20;;;22.40;67.20;;;;;;5014575;28;20187;-67
2023/06/11 03:59:52;;;;;;;4.55;4.25;;;22.40;67.30;;;;;;5030612;28;20214;-67
2023/06/11 04:02:18;;;;;;;4.80;4.40;;;22.40;67.20;;;;;;5028798;28;20195;-67
2023/06/11 04:04:45;;;;;;;4.95;4.55;;;22.40;67.20;;;;;;5012697;28;20203;-67
2023/06/11 04:07:11;;;;;;;4.70;4.30;;;22.40;67.20;;;;;;5014390;28;20218;-67
2023/06/11 04:09:38;;;;;;;4.60;4.30;;;22.40;67.20;;;;;;5014001;28;20199;-67
2023/06/11 04:12:05;;;;;;;4.70;4.30;;;22.40;67.20;;;;;;5002832;28;20656;-67
2023/06/11 04:14:32;;;;;;;4.30;4.00;;;22.40;67.30;;;;;;5024356;28;20188;-67
2023/06/11 04:16:58;;;;;;;4.88;4.55;;;22.40;67.20;;;;;;5019364;28;20203;-67
2023/06/11 04:19:23;;;;;;;4.45;4.15;;;22.40;67.20;;;;;;5035699;28;20220;-67
2023/06/11 04:21:49;;;;;;;4.63;4.22;;;22.40;67.20;;;;;;5019876;28;20238;-67
2023/06/11 04:24:15;;;;;;;4.70;4.30;;;22.40;67.20;;;;;;5000524;28;20208;-67
2023/06/11 04:26:43;;;;;;;4.10;3.80;;;22.40;67.20;;;;;;5020061;28;20207;-67
2023/06/11 04:29:09;;;;;;;5.15;4.75;;;22.40;67.20;;;;;;5022810;28;20337;-67
2023/06/11 04:31:35;;;;;;;4.63;4.32;;;22.40;67.30;;;;;;5030753;28;20282;-66
2023/06/11 04:34:02;;;;;;;4.38;4.07;;;22.40;67.30;;;;;;5030979;28;20184;-67
2023/06/11 04:36:30;;;;;;;3.95;3.65;;;22.40;67.30;;;;;;5030782;28;20198;-67
2023/06/11 04:38:56;;;;;;;4.47;4.10;;;22.40;67.30;;;;;;5022516;28;20199;-67
2023/06/11 04:41:26;;;;;;;4.70;4.30;;;22.40;67.30;;;;;;5027471;28;20196;-67
2023/06/11 04:43:52;;;;;;;4.78;4.38;;;22.40;67.30;;;;;;5011313;28;20191;-67
2023/06/11 04:46:18;;;;;;;4.90;4.50;;;22.40;67.30;;;;;;5010494;28;20204;-67
2023/06/11 04:48:50;;;;;;;4.90;4.55;;;22.40;67.30;;;;;;5020373;28;20203;-67
2023/06/11 04:51:17;;;;;;;4.45;4.10;;;22.40;67.30;;;;;;5027328;28;20200;-67
2023/06/11 04:53:45;;;;;;;4.45;4.15;;;22.40;67.30;;;;;;5031970;28;20187;-67
2023/06/11 04:56:14;;;;;;;4.65;4.30;;;22.40;67.30;;;;;;5017982;28;20282;-66
2023/06/11 04:58:40;;;;;;;4.55;4.25;;;22.40;67.30;;;;;;5025856;28;20207;-67
2023/06/11 05:01:08;;;;;;;4.30;4.00;;;22.40;67.30;;;;;;5029603;28;20183;-67
2023/06/11 05:03:37;;;;;;;5.20;4.78;;;22.40;67.40;;;;;;5031702;28;20183;-67
2023/06/11 05:06:05;;;;;;;4.28;3.95;;;22.40;67.40;;;;;;5006600;28;20204;-67
2023/06/11 05:08:33;;;;;;;4.63;4.30;;;22.40;67.30;;;;;;5030209;28;20207;-67
2023/06/11 05:11:00;;;;;;;4.22;3.92;;;22.30;67.30;;;;;;5038580;28;20275;-67
2023/06/11 05:13:29;;;;;;;4.28;3.97;;;22.40;67.40;;;;;;5022675;28;20311;-67
2023/06/11 05:16:00;;;;;;;4.28;3.97;;;22.30;67.30;;;;;;5047078;28;20188;-67
2023/06/11 05:18:26;;;;;;;4.70;4.30;;;22.40;67.50;;;;;;5009437;28;20285;-67
2023/06/11 05:20:55;;;;;;;4.47;4.18;;;22.40;67.50;;;;;;5031306;28;20628;-67
2023/06/11 05:23:28;;;;;;;4.40;4.10;;;22.40;67.50;;;;;;5012066;28;20195;-67
2023/06/11 05:26:00;;;;;;;4.70;4.40;;;22.30;67.40;;;;;;5033621;28;20265;-67
2023/06/11 05:28:27;;;;;;;4.65;4.25;;;22.40;67.50;;;;;;5027240;28;20219;-67
2023/06/11 05:30:53;;;;;;;4.70;4.30;;;22.30;67.40;;;;;;5015612;28;20175;-67
2023/06/11 05:33:20;;;;;;;4.70;4.10;;;22.30;67.40;;;;;;5017564;28;20187;-67
2023/06/11 05:35:47;;;;;;;4.72;4.43;;;22.30;67.40;;;;;;5017219;28;20183;-67
2023/06/11 05:38:13;;;;;;;4.47;4.07;;;22.40;67.50;;;;;;5048486;28;20222;-67
2023/06/11 05:40:41;;;;;;;4.63;4.32;;;22.30;67.40;;;;;;5030131;28;20729;-67
2023/06/11 05:43:07;;;;;;;4.35;4.00;;;22.40;67.50;;;;;;5033341;28;20237;-67
2023/06/11 05:45:35;;;;;;;4.40;4.10;;;22.40;67.50;;;;;;5017309;28;20207;-67
2023/06/11 05:48:03;;;;;;;4.20;3.90;;;22.30;67.40;;;;;;5049746;28;20187;-67
2023/06/11 05:50:31;;;;;;;4.35;4.05;;;22.40;67.50;;;;;;5033248;28;20183;-67
2023/06/11 05:52:57;;;;;;;4.28;3.97;;;22.30;67.40;;;;;;5026155;28;20190;-67
2023/06/11 05:55:23;;;;;;;4.50;4.20;;;22.30;67.40;;;;;;5033164;28;20187;-67
2023/06/11 05:57:49;;;;;;;5.20;4.80;;;22.30;67.40;;;;;;5032898;28;20249;-67
2023/06/11 06:00:17;;;;;;;4.45;4.15;;;22.30;67.40;;;;;;5029414;28;20243;-67
2023/06/11 06:02:47;;;;;;;4.35;4.03;;;22.40;67.50;;;;;;5014797;28;20187;-67
2023/06/11 06:05:20;;;;;;;4.50;4.13;;;22.40;67.50;;;;;;5013855;28;20753;-67
2023/06/11 06:07:46;;;;;;;4.72;4.35;;;22.30;67.40;;;;;;5013290;28;20667;-67
2023/06/11 06:10:12;;;;;;;4.32;4.03;;;22.40;67.50;;;;;;5012930;28;20210;-67
2023/06/11 06:12:37;;;;;;;4.47;4.07;;;22.40;67.50;;;;;;5037969;28;20188;-67
2023/06/11 06:15:04;;;;;;;4.78;4.47;;;22.40;67.50;;;;;;5016338;28;20183;-68
2023/06/11 06:17:30;;;;;;;4.60;4.20;;;22.40;67.50;;;;;;5007723;28;20729;-67
2023/06/11 06:19:56;;;;;;;4.60;4.30;;;22.40;67.50;;;;;;5006350;28;20213;-67
2023/06/11 06:22:22;;;;;;;4.30;4.00;;;22.40;67.40;;;;;;5032913;28;20187;-67
2023/06/11 06:24:48;;;;;;;4.00;3.70;;;22.40;67.50;;;;;;4998525;28;20208;-66
2023/06/11 06:27:14;;;;;;;4.18;3.88;;;22.40;67.40;;;;;;5023535;28;20192;-67
2023/06/11 06:29:41;;;;;;;4.63;4.32;;;22.40;67.40;;;;;;5026010;28;20238;-67
2023/06/11 06:32:08;;;;;;;4.75;4.35;;;22.40;67.40;;;;;;5023168;28;20183;-67
2023/06/11 06:34:35;;;;;;;4.70;4.30;;;22.40;67.30;;;;;;5021352;28;20192;-68
2023/06/11 06:37:01;;;;;;;4.63;4.25;;;22.40;67.40;;;;;;5013105;28;20191;-67
2023/06/11 06:39:28;;;;;;;4.28;3.97;;;22.40;67.50;;;;;;5010771;28;20211;-68
2023/06/11 06:41:55;;;;;;;4.70;4.35;;;22.40;67.50;;;;;;5032160;28;20209;-67
2023/06/11 06:44:33;;;;;;;4.43;4.13;;;22.40;67.50;;;;;;5017721;28;20349;-67
2023/06/11 06:46:59;;;;;;;4.40;4.10;;;22.40;67.50;;;;;;5013369;28;20187;-67
2023/06/11 06:49:24;;;;;;;4.07;3.78;;;22.40;67.50;;;;;;5009750;28;20607;-67
2023/06/11 06:51:50;;;;;;;4.35;4.05;;;22.40;67.50;;;;;;5021786;28;20192;-67
2023/06/11 06:54:16;;;;;;;4.50;4.10;;;22.50;67.70;;;;;;5029139;28;20188;-67
2023/06/11 06:56:43;;;;;;;4.70;4.40;;;22.50;68.40;;;;;;5015460;28;20278;-68
2023/06/11 06:59:09;;;;;;;4.10;3.75;;;22.50;67.60;;;;;;5007679;28;20199;-67
2023/06/11 07:01:37;;;;;;;4.53;4.22;;;22.50;67.70;;;;;;5031874;28;20187;-67
2023/06/11 07:04:04;;;;;;;4.18;3.85;;;22.50;67.60;;;;;;4999360;28;20191;-67
2023/06/11 07:06:30;;;;;;;4.18;3.88;;;22.50;67.60;;;;;;5017492;28;20600;-67
2023/06/11 07:08:56;;;;;;;4.50;4.10;;;22.50;67.60;;;;;;5013749;28;20237;-67
2023/06/11 07:11:22;;;;;;;4.38;4.07;;;22.50;67.60;;;;;;5031668;28;20250;-67
2023/06/11 07:13:48;;;;;;;4.57;4.28;;;22.50;67.50;;;;;;5015523;28;20223;-67
2023/06/11 07:16:14;;;;;;;4.95;4.47;;;22.50;67.50;;;;;;5031887;28;20214;-67
2023/06/11 07:18:46;;;;;;;4.57;4.15;;;22.50;67.50;;;;;;5031700;28;20229;-67
2023/06/11 07:21:14;;;;;;;4.07;3.78;;;22.50;67.50;;;;;;5003900;28;20192;-67
2023/06/11 07:23:41;;;;;;;4.32;4.03;;;22.50;67.50;;;;;;5011949;28;20187;-67
2023/06/11 07:26:07;;;;;;;4.90;4.50;;;22.50;67.60;;;;;;5023177;28;20746;-67
2023/06/11 07:28:35;;;;;;;4.15;3.85;;;22.50;67.50;;;;;;5016428;28;20215;-66
2023/06/11 07:31:01;;;;;;;5.05;4.65;;;22.50;67.50;;;;;;4995397;28;20183;-67
2023/06/11 07:33:28;;;;;;;4.30;4.00;;;22.50;67.50;;;;;;4995655;28;20554;-67
2023/06/11 07:35:56;;;;;;;4.47;4.18;;;22.50;67.50;;;;;;5013144;28;20191;-66
2023/06/11 07:38:23;;;;;;;4.65;4.30;;;22.50;67.40;;;;;;5026466;28;20274;-68
2023/06/11 07:40:49;;;;;;;4.93;4.53;;;22.50;67.40;;;;;;4995199;28;20649;-66
2023/06/11 07:43:14;;;;;;;4.95;4.55;;;22.50;67.30;;;;;;5024031;28;20202;-67
2023/06/11 07:45:40;;;;;;;4.43;4.03;;;22.50;68.10;;;;;;5028252;28;20677;-67
2023/06/11 07:48:07;;;;;;;4.40;4.10;;;22.50;67.70;;;;;;5011590;28;20191;-67
2023/06/11 07:50:33;;;;;;;4.18;3.88;;;22.50;67.20;;;;;;5011349;28;20223;-68
2023/06/11 07:52:59;;;;;;;4.72;4.43;;;22.50;67.10;;;;;;4995442;28;20216;-67
2023/06/11 07:55:27;;;;;;;4.45;4.15;;;22.50;67.10;;;;;;5011964;28;20192;-68
2023/06/11 07:57:53;;;;;;;4.60;4.30;;;22.50;67.00;;;;;;4995202;28;20195;-67
2023/06/11 08:00:19;;;;;;;4.43;4.05;;;22.50;67.10;;;;;;5007612;28;20211;-67
2023/06/11 08:02:44;;;;;;;4.50;4.10;;;22.50;67.00;;;;;;5015171;28;20368;-67
2023/06/11 08:05:17;;;;;;;4.55;4.15;;;22.50;67.00;;;;;;5012815;28;20216;-67
2023/06/11 08:07:48;;;;;;;4.50;4.10;;;22.60;67.10;;;;;;5027879;28;20180;-66
2023/06/11 08:10:14;;;;;;;4.57;4.28;;;22.50;67.00;;;;;;5030819;28;20824;-67
2023/06/11 08:12:41;;;;;;;4.25;3.95;;;22.60;67.10;;;;;;5031070;28;20210;-68
2023/06/11 08:15:08;;;;;;;4.60;4.20;;;22.50;66.90;;;;;;5031350;28;20179;-67
2023/06/11 08:17:34;;;;;;;4.50;4.20;;;22.60;67.10;;;;;;5022779;28;20195;-67
2023/06/11 08:20:01;;;;;;;4.28;3.95;;;22.60;67.00;;;;;;5006223;28;20211;-67
2023/06/11 08:22:27;;;;;;;4.30;4.00;;;22.60;67.90;;;;;;5026888;28;20202;-67
2023/06/11 08:24:53;;;;;;;4.40;4.10;;;22.60;67.00;;;;;;5008810;28;20211;-67
2023/06/11 08:27:18;;;;;;;4.30;4.00;;;22.60;67.00;;;;;;5008439;28;20222;-67
2023/06/11 08:29:44;;;;;;;4.72;4.43;;;22.50;66.90;;;;;;5026643;28;20215;-68
2023/06/11 08:32:10;;;;;;;5.22;4.82;;;22.60;67.00;;;;;;5034815;28;20195;-64
2023/06/11 08:34:36;;;;;;;4.82;4.45;;;22.60;67.00;;;;;;5010303;28;20654;-68
2023/06/11 08:37:03;;;;;;;4.38;4.07;;;22.60;67.00;;;;;;5027577;28;20191;-67
2023/06/11 08:39:29;;;;;;;4.78;4.38;;;22.60;67.00;;;;;;5031054;28;20204;-67
2023/06/11 08:41:55;;;;;;;4.60;4.20;;;22.60;67.00;;;;;;5014797;28;20192;-66
2023/06/11 08:44:21;;;;;;;4.68;4.28;;;22.70;67.10;;;;;;5016109;28;20180;-67
2023/06/11 08:46:49;;;;;;;4.72;4.32;;;22.70;67.00;;;;;;4998808;28;20239;-67
2023/06/11 08:49:22;;;;;;;4.90;4.50;;;22.70;66.90;;;;;;5018240;28;20211;-65
2023/06/11 08:51:49;;;;;;;4.63;4.22;;;22.70;66.90;;;;;;5026815;28;20192;-66
2023/06/11 08:54:15;;;;;;;4.72;4.38;;;22.70;66.90;;;;;;5031645;28;20209;-65
2023/06/11 08:56:43;;;;;;;4.60;4.30;;;22.70;66.90;;;;;;5014675;28;20192;-67
2023/06/11 08:59:09;;;;;;;4.82;4.32;;;22.70;66.90;;;;;;5032875;28;20231;-67
2023/06/11 09:01:35;;;;;;;4.43;4.13;;;22.70;67.00;;;;;;5034209;28;20191;-67
2023/06/11 09:04:01;;;;;;;4.72;4.40;;;22.70;67.00;;;;;;5041633;28;20253;-68
2023/06/11 09:06:28;;;;;;;4.60;4.28;;;22.70;67.00;;;;;;5028882;28;20297;-67
2023/06/11 09:09:05;;;;;;;4.53;4.13;;;22.70;67.00;;;;;;5050453;28;20211;-67
2023/06/11 09:11:36;;;;;;;4.13;3.72;;;22.70;67.00;;;;;;5022327;28;20198;-67
2023/06/11 09:14:03;;;;;;;4.70;4.30;;;22.70;67.00;;;;;;5041097;28;20221;-67
2023/06/11 09:16:37;;;;;;;4.60;4.30;;;22.70;67.00;;;;;;5028710;28;20610;-67
2023/06/11 09:19:03;;;;;;;4.03;3.72;;;22.70;67.00;;;;;;5017612;28;20210;-67
2023/06/11 09:21:28;;;;;;;4.22;3.92;;;22.70;67.00;;;;;;5012318;28;20235;-67
2023/06/11 09:23:54;;;;;;;4.40;4.10;;;22.70;67.00;;;;;;5030673;28;20286;-67
2023/06/11 09:26:21;;;;;;;4.47;4.13;;;22.80;67.00;;;;;;5009034;28;20207;-67
2023/06/11 09:28:46;;;;;;;4.88;4.45;;;22.70;67.40;;;;;;5026782;28;20238;-67
2023/06/11 09:31:12;;;;;;;4.78;4.40;;;22.70;67.10;;;;;;5006384;28;20636;-67
2023/06/11 09:33:38;;;;;;;4.47;4.07;;;22.70;67.00;;;;;;5028387;28;20203;-67
2023/06/11 09:36:04;;;;;;;4.57;4.28;;;22.70;67.10;;;;;;5009095;28;20196;-67
2023/06/11 09:38:36;;;;;;;4.25;3.95;;;22.70;67.10;;;;;;5016437;28;20319;-67
2023/06/11 09:41:06;;;;;;;4.45;4.15;;;22.70;67.10;;;;;;5033698;28;20193;-67
2023/06/11 09:43:33;;;;;;;4.25;3.95;;;22.70;67.10;;;;;;5028405;28;20655;-67
2023/06/11 09:46:01;;;;;;;4.50;4.20;;;22.80;67.20;;;;;;5013656;28;20207;-67
2023/06/11 09:48:28;;;;;;;4.38;3.97;;;22.70;67.10;;;;;;5013777;28;20203;-65
2023/06/11 09:50:54;;;;;;;4.45;4.13;;;22.70;67.10;;;;;;5021751;28;20241;-66
2023/06/11 09:53:22;;;;;;;4.70;4.40;;;22.70;67.10;;;;;;5016856;28;20191;-65
2023/06/11 09:55:50;;;;;;;4.20;3.90;;;22.70;67.10;;;;;;5018782;28;20196;-67
2023/06/11 09:58:27;;;;;;;4.35;3.95;;;22.70;67.10;;;;;;5008157;28;20256;-67
2023/06/11 10:01:00;;;;;;;4.13;3.83;;;22.70;67.00;;;;;;5033204;28;20172;-68
2023/06/11 10:03:27;;;;;;;4.45;4.15;;;22.80;67.10;;;;;;5026169;28;20282;-67
2023/06/11 10:05:53;;;;;;;4.07;3.78;;;22.80;67.00;;;;;;5019983;28;20264;-67
2023/06/11 10:08:31;;;;;;;4.63;4.22;;;22.80;67.00;;;;;;5016404;28;20670;-67
2023/06/11 10:11:01;;;;;;;5.70;4.60;;;22.80;67.10;;;;;;5016317;28;20607;-68
2023/06/11 10:13:33;;;;;;;4.40;4.10;;;22.80;67.00;;;;;;5036942;28;20192;-67
2023/06/11 10:16:06;;;;;;;4.68;4.28;;;22.80;67.00;;;;;;4997021;28;20211;-67
2023/06/11 10:18:32;;;;;;;4.60;4.20;;;22.80;67.10;;;;;;4996622;28;20216;-66
2023/06/11 10:21:02;;;;;;;4.47;4.07;;;22.80;67.20;;;;;;5013236;28;20199;-66
2023/06/11 10:23:54;;;;;;;5.90;4.55;;;22.80;67.00;;;;;;5017524;28;20196;-67
2023/06/11 10:26:32;;;;;;;7.07;4.22;;;22.80;67.10;;;;;;5017048;28;20238;-67
2023/06/11 10:28:58;;;;;;;6.88;3.92;;;22.80;67.10;;;;;;5007807;28;20230;-66
2023/06/11 10:31:36;;;;;;;5.75;4.50;;;22.80;67.30;;;;;;5008276;28;20738;-66
2023/06/11 10:34:04;;;;;;;4.97;4.57;;;22.80;67.20;;;;;;5049519;28;20167;-67
2023/06/11 10:36:38;;;;;;;5.22;4.20;;;22.80;67.30;;;;;;5045078;28;20298;-66
2023/06/11 10:39:10;;;;;;;4.95;4.30;;;22.80;67.20;;;;;;5015760;28;20237;-67
2023/06/11 10:41:40;;;;;;;6.45;4.32;;;22.80;67.40;;;;;;5026798;28;20294;-67
2023/06/11 10:44:07;;;;;;;5.03;4.63;;;22.80;67.20;;;;;;4996167;28;20283;-67
2023/06/11 10:46:49;;;;;;;4.82;4.43;;;22.80;67.30;;;;;;5025577;28;20629;-67
2023/06/11 10:49:15;;;;;;;7.30;4.60;;;22.80;67.10;;;;;;5015211;28;20298;-67
2023/06/11 10:51:41;;;;;;;4.60;4.20;;;22.80;67.50;;;;;;5031937;28;20199;-63
2023/06/11 10:54:07;;;;;;;4.90;4.20;;;22.80;67.10;;;;;;5032312;28;20194;-66
2023/06/11 10:56:38;;;;;;;5.35;4.40;;;22.80;67.00;;;;;;5035590;28;20578;-66
2023/06/11 10:59:09;;;;;;;5.63;4.53;;;22.80;67.00;;;;;;5012703;28;20204;-66
2023/06/11 11:01:36;;;;;;;4.75;4.28;;;22.80;67.10;;;;;;5012241;28;20184;-69
2023/06/11 11:04:03;;;;;;;4.80;4.30;;;22.80;67.00;;;;;;5023096;28;20195;-66
2023/06/11 11:06:29;;;;;;;5.35;4.63;;;22.80;66.80;;;;;;5031873;28;20214;-67
2023/06/11 11:08:56;;;;;;;5.28;4.70;;;22.80;66.80;;;;;;5025057;28;20222;-67
2023/06/11 11:11:26;;;;;;;4.68;4.18;;;22.80;67.00;;;;;;5014973;28;20191;-67
2023/06/11 11:13:53;;;;;;;4.65;4.25;;;22.80;66.90;;;;;;5023940;28;20563;-67
2023/06/11 11:16:20;;;;;;;4.95;4.63;;;22.80;67.00;;;;;;5023483;28;20187;-67
2023/06/11 11:18:47;;;;;;;5.15;4.65;;;22.80;67.00;;;;;;5045025;28;20212;-66
2023/06/11 11:21:14;;;;;;;4.88;4.45;;;22.80;67.00;;;;;;4995592;28;20203;-67
2023/06/11 11:23:39;;;;;;;5.50;5.07;;;22.80;66.90;;;;;;5014211;28;20623;-66
2023/06/11 11:26:05;;;;;;;4.75;4.18;;;22.80;66.80;;;;;;5029304;28;20219;-65
2023/06/11 11:28:32;;;;;;;5.28;4.35;;;22.80;66.80;;;;;;5032564;28;20215;-66
2023/06/11 11:30:59;;;;;;;5.05;4.65;;;22.80;66.70;;;;;;5040212;28;20612;-62
2023/06/11 11:33:27;;;;;;;6.10;4.30;;;22.80;66.60;;;;;;5003896;28;20234;-62
2023/06/11 11:35:54;;;;;;;4.72;4.32;;;22.80;66.70;;;;;;5020231;28;20191;-65
2023/06/11 11:38:22;;;;;;;5.20;4.32;;;22.80;66.80;;;;;;5021369;28;20765;-65
2023/06/11 11:40:57;;;;;;;5.28;4.88;;;22.80;66.80;;;;;;5011941;28;20223;-65
2023/06/11 11:43:23;;;;;;;4.70;4.40;;;22.90;66.70;;;;;;5039360;28;20785;-65
2023/06/11 11:45:49;;;;;;;4.50;4.20;;;22.90;66.60;;;;;;5022737;28;20230;-64
2023/06/11 11:48:16;;;;;;;4.70;4.30;;;22.90;66.60;;;;;;5013991;28;20315;-65
2023/06/11 11:50:50;;;;;;;4.43;4.13;;;22.80;66.20;;;;;;5008773;28;20191;-65
2023/06/11 11:53:18;;;;;;;4.93;4.43;;;22.80;66.00;;;;;;5027636;28;20250;-64
2023/06/11 11:55:46;;;;;;;4.30;4.00;;;22.90;66.20;;;;;;5014664;28;20195;-65
2023/06/11 11:58:15;;;;;;;4.40;4.10;;;22.80;66.20;;;;;;5014582;28;20199;-63
2023/06/11 12:00:51;;;;;;;4.22;3.92;;;22.90;66.40;;;;;;5027324;28;20221;-65
2023/06/11 12:03:22;;;;;;;4.82;4.32;;;22.80;66.30;;;;;;5014852;28;20195;-65
2023/06/11 12:06:03;;;;;;;4.18;3.88;;;22.90;66.20;;;;;;5041061;28;20264;-64
2023/06/11 12:08:31;;;;;;;4.78;4.47;;;22.90;66.20;;;;;;4994196;28;20211;-64
2023/06/11 12:10:59;;;;;;;4.53;4.22;;;22.90;66.30;;;;;;5027239;28;20191;-65
2023/06/11 12:13:25;;;;;;;4.82;4.40;;;22.90;66.40;;;;;;5003483;28;20188;-65
2023/06/11 12:15:51;;;;;;;4.55;4.25;;;22.90;66.00;;;;;;5006752;28;20211;-65
2023/06/11 12:18:18;;;;;;;5.05;4.63;;;22.90;66.30;;;;;;5044034;28;20200;-65
2023/06/11 12:20:44;;;;;;;4.40;4.00;;;22.90;66.00;;;;;;4997781;28;20200;-64
2023/06/11 12:23:10;;;;;;;4.10;3.80;;;22.90;66.10;;;;;;5027496;28;20265;-65
2023/06/11 12:25:36;;;;;;;4.82;4.20;;;22.90;65.90;;;;;;5019213;28;20215;-64
2023/06/11 12:28:02;;;;;;;4.70;4.30;;;22.90;66.00;;;;;;5040635;28;20196;-64
2023/06/11 12:30:31;;;;;;;4.55;4.25;;;22.80;65.70;;;;;;5022868;28;20179;-67
2023/06/11 12:32:58;;;;;;;4.90;4.45;;;22.80;65.40;;;;;;5018414;28;20187;-64
2023/06/11 12:35:25;;;;;;;4.55;4.20;;;22.90;65.90;;;;;;5003233;28;20735;-65
2023/06/11 12:37:52;;;;;;;5.85;4.50;;;22.90;65.70;;;;;;5011044;28;20189;-65
2023/06/11 12:40:17;;;;;;;5.63;4.18;;;22.90;65.60;;;;;;5013508;28;20252;-65
2023/06/11 12:42:43;;;;;;;4.72;4.38;;;22.90;65.80;;;;;;5039103;28;20694;-64
2023/06/11 12:45:10;;;;;;;4.65;4.28;;;22.90;65.50;;;;;;5045345;28;20207;-65
2023/06/11 12:47:38;;;;;;;4.65;4.32;;;22.90;65.70;;;;;;5026248;28;20200;-64
2023/06/11 12:50:04;;;;;;;4.60;4.30;;;22.90;65.70;;;;;;5034984;28;20204;-66
2023/06/11 12:52:30;;;;;;;4.75;4.35;;;22.90;65.70;;;;;;5014540;28;20191;-65